CEL2 weather

Calgary (City / Bow River) Heliport
Calgary, Alberta, Canada

Public forecast

Using degrees Celsius for public forecast. Weather courtesy of forecast.io.

METAR (pilot weather report)

Closest report is Calgary International Airport, 4.3 nm (7.9 km) NNE. Retrieved 2019/06/16 01:00 UTC (1 hour ago):

CYYC 160100Z CCA 36008G15KT 30SM FEW055CB FEW130 FEW180 FEW200 20/05 A3001 RMK CB1AC1AC1CI1 AC TR CI TR VIS W 15 CB CLD SLP165 DENSITY ALT 5000FT

TAF (pilot weather forecast)

Closest forecast is Calgary International Airport, 4.3 nm (7.9 km) NNE. Retrieved 2019/06/16 03:42 UTC (0 seconds ago):

TAF CYYC 160238Z 1603/1624 01008KT P6SM SCT080 BECMG 1603/1605 28005KT FM162000 35008KT P6SM SCT080 RMK NXT FCST BY 160600Z